createdAt,value
2022-10-28T00:01:28.857Z,101165.86
2022-10-28T00:03:59.313Z,101164.14
2022-10-28T00:06:33.277Z,101161.88
2022-10-28T00:09:04.592Z,101159.75
2022-10-28T00:11:36.355Z,101155.73
2022-10-28T00:14:07.362Z,101156.00
2022-10-28T00:16:37.890Z,101157.54
2022-10-28T00:19:07.685Z,101156.84
2022-10-28T00:21:37.394Z,101155.73
2022-10-28T00:24:06.946Z,101153.61
2022-10-28T00:26:36.852Z,101151.49
2022-10-28T00:29:14.442Z,101146.70
2022-10-28T00:31:43.136Z,101143.73
2022-10-28T00:34:17.527Z,101142.63
2022-10-28T00:36:47.560Z,101139.91
2022-10-28T00:39:19.313Z,101142.57
2022-10-28T00:41:50.404Z,101138.45
2022-10-28T00:44:41.294Z,101132.67
2022-10-28T00:47:38.581Z,101131.77
2022-10-28T00:50:26.758Z,101128.84
2022-10-28T00:53:02.110Z,101125.27
2022-10-28T00:55:31.985Z,101124.65
2022-10-28T00:58:02.848Z,101123.14
2022-10-28T01:00:31.945Z,101120.70
2022-10-28T01:03:00.536Z,101121.30
2022-10-28T01:05:31.656Z,101123.60
2022-10-28T01:08:02.090Z,101126.16
2022-10-28T01:10:44.136Z,101123.70
2022-10-28T01:13:52.723Z,101121.42
2022-10-28T01:17:13.538Z,101118.02
2022-10-28T01:20:00.243Z,101117.68
2022-10-28T01:22:41.514Z,101111.36
2022-10-28T01:25:54.338Z,101107.70
2022-10-28T01:28:28.211Z,101105.58
2022-10-28T01:31:27.203Z,101103.33
2022-10-28T01:34:39.962Z,101098.14
2022-10-28T01:37:34.065Z,101095.71
2022-10-28T01:40:27.111Z,101086.05
2022-10-28T01:43:25.282Z,101090.20
2022-10-28T01:46:08.506Z,101083.25
2022-10-28T01:48:53.271Z,101082.02
2022-10-28T01:51:35.881Z,101078.96
2022-10-28T01:54:07.746Z,101073.36
2022-10-28T01:56:41.036Z,101073.11
2022-10-28T01:59:18.010Z,101072.46
2022-10-28T02:01:46.275Z,101071.98
2022-10-28T02:04:15.591Z,101070.20
2022-10-28T02:06:48.217Z,101070.01
2022-10-28T02:09:47.171Z,101073.07
2022-10-28T02:12:26.711Z,101072.74
2022-10-28T02:15:16.906Z,101069.27
2022-10-28T02:17:57.551Z,101068.91
2022-10-28T02:20:31.878Z,101072.58
2022-10-28T02:23:33.960Z,101070.58
2022-10-28T02:26:22.813Z,101069.29
2022-10-28T02:29:20.185Z,101068.79
2022-10-28T02:31:53.877Z,101068.58
2022-10-28T02:34:27.688Z,101067.11
2022-10-28T02:36:59.847Z,101063.02
2022-10-28T02:39:36.748Z,101065.33
2022-10-28T02:42:24.314Z,101055.30
2022-10-28T02:45:01.067Z,101057.15
2022-10-28T02:47:34.010Z,101054.60
2022-10-28T02:50:07.818Z,101057.85
2022-10-28T02:52:36.764Z,101060.02
2022-10-28T02:55:06.678Z,101065.70
2022-10-28T02:57:39.504Z,101055.40
2022-10-28T03:00:11.482Z,101061.41
2022-10-28T03:02:39.596Z,101064.00
2022-10-28T03:05:08.265Z,101062.96
2022-10-28T03:07:36.301Z,101061.47
2022-10-28T03:10:04.893Z,101064.40
2022-10-28T03:12:33.715Z,101059.82
2022-10-28T03:15:03.284Z,101056.08
2022-10-28T03:17:31.777Z,101052.99
2022-10-28T03:20:00.045Z,101054.52
2022-10-28T03:22:28.209Z,101054.20
2022-10-28T03:24:56.278Z,101053.42
2022-10-28T03:27:25.698Z,101047.34
2022-10-28T03:29:53.922Z,101042.46
2022-10-28T03:34:55.141Z,101040.77
2022-10-28T03:37:23.258Z,101039.56
2022-10-28T03:39:51.373Z,101033.55
2022-10-28T03:42:20.271Z,101041.41
2022-10-28T03:44:48.227Z,101045.34
2022-10-28T03:47:19.065Z,101046.83
2022-10-28T03:49:47.248Z,101052.16
2022-10-28T03:52:15.242Z,101049.41
2022-10-28T03:54:43.390Z,101050.09
2022-10-28T03:57:14.342Z,101046.36
2022-10-28T03:59:42.401Z,101044.21
2022-10-28T04:02:11.213Z,101042.26
2022-10-28T04:04:39.673Z,101043.23
2022-10-28T04:07:07.743Z,101043.67
2022-10-28T04:09:35.909Z,101049.81
2022-10-28T04:12:08.204Z,101040.55
2022-10-28T04:14:36.259Z,101040.21
2022-10-28T04:17:04.424Z,101036.64
2022-10-28T04:19:35.060Z,101034.09
2022-10-28T04:22:03.163Z,101030.38
2022-10-28T04:24:31.411Z,101029.67
2022-10-28T04:26:59.691Z,101026.15
2022-10-28T04:29:27.830Z,101023.05
2022-10-28T04:31:56.003Z,101023.70
2022-10-28T04:34:24.167Z,101021.23
2022-10-28T04:36:52.664Z,101020.73
2022-10-28T04:39:21.464Z,101022.58
2022-10-28T04:41:49.818Z,101021.80
2022-10-28T04:44:18.598Z,101020.62
2022-10-28T04:46:46.890Z,101020.83
2022-10-28T04:49:15.062Z,101022.40
2022-10-28T04:51:43.283Z,101020.83
2022-10-28T04:54:12.372Z,101022.65
2022-10-28T04:56:40.398Z,101019.86
2022-10-28T04:59:08.429Z,101018.86
2022-10-28T05:01:37.391Z,101020.63
2022-10-28T05:04:06.272Z,101012.86
2022-10-28T05:06:34.322Z,101010.31
2022-10-28T05:09:06.802Z,101007.98
2022-10-28T05:11:34.949Z,101009.02
2022-10-28T05:14:03.874Z,101010.20
2022-10-28T05:16:32.126Z,101006.16
2022-10-28T05:19:00.331Z,101009.54
2022-10-28T05:21:28.705Z,101010.98
2022-10-28T05:23:57.400Z,101008.73
2022-10-28T05:26:25.558Z,101009.17
2022-10-28T05:28:53.703Z,101009.52
2022-10-28T05:31:22.105Z,101004.08
2022-10-28T05:33:57.651Z,101004.73
2022-10-28T05:36:31.648Z,101007.52
2022-10-28T05:39:02.505Z,101004.38
2022-10-28T05:41:34.039Z,101002.69
2022-10-28T05:44:04.584Z,101005.52
2022-10-28T05:46:32.861Z,101005.21
2022-10-28T05:49:01.026Z,101005.38
2022-10-28T05:51:29.106Z,101000.86
2022-10-28T05:53:58.739Z,100996.50
2022-10-28T05:56:27.408Z,100997.05
2022-10-28T05:58:58.156Z,100992.11
2022-10-28T06:01:26.606Z,100990.15
2022-10-28T06:03:55.074Z,100992.92
2022-10-28T06:06:23.378Z,100997.27
2022-10-28T06:08:51.543Z,101001.59
2022-10-28T06:11:18.503Z,101004.80
2022-10-28T06:13:47.384Z,101002.45
2022-10-28T06:16:16.176Z,101000.94
2022-10-28T06:18:44.545Z,100999.80
2022-10-28T06:21:13.342Z,100992.73
2022-10-28T06:23:41.391Z,100995.27
2022-10-28T06:26:09.696Z,100992.92
2022-10-28T06:28:37.974Z,100993.74
2022-10-28T06:31:07.968Z,100997.34
2022-10-28T06:33:36.159Z,100996.79
2022-10-28T06:36:05.350Z,101004.14
2022-10-28T06:38:33.536Z,101014.01
2022-10-28T06:41:45.154Z,101009.06
2022-10-28T06:44:13.420Z,100999.05
2022-10-28T06:46:43.100Z,101009.95
2022-10-28T06:49:11.305Z,101019.23
2022-10-28T06:51:39.460Z,101018.25
2022-10-28T06:54:07.626Z,101022.08
2022-10-28T06:56:35.914Z,101022.91
2022-10-28T06:59:04.095Z,101021.36
2022-10-28T07:01:32.389Z,101015.98
2022-10-28T07:04:01.701Z,101010.59
2022-10-28T07:06:29.843Z,101005.29
2022-10-28T07:08:58.022Z,101007.23
2022-10-28T07:11:26.342Z,101016.34
2022-10-28T07:13:54.482Z,101021.21
2022-10-28T07:16:22.660Z,101022.16
2022-10-28T07:18:50.917Z,101020.67
2022-10-28T07:21:21.971Z,101026.20
2022-10-28T07:23:50.332Z,101031.09
2022-10-28T07:26:18.425Z,101031.84
2022-10-28T07:28:46.708Z,101034.09
2022-10-28T07:31:14.880Z,101036.61
2022-10-28T07:33:43.256Z,101034.79
2022-10-28T07:36:12.239Z,101034.02
2022-10-28T07:38:40.743Z,101032.79
2022-10-28T07:41:10.734Z,101027.05
2022-10-28T07:43:39.619Z,101021.60
2022-10-28T07:46:08.008Z,101025.48
2022-10-28T07:48:37.613Z,101026.53
2022-10-28T07:51:08.303Z,101024.05
2022-10-28T07:53:37.428Z,101023.82
2022-10-28T07:56:13.914Z,101023.89
2022-10-28T07:58:44.082Z,101024.55
2022-10-28T08:01:15.367Z,101023.48
2022-10-28T08:03:44.144Z,101021.33
2022-10-28T08:06:18.817Z,101017.07
2022-10-28T08:08:49.101Z,101014.64
2022-10-28T08:11:19.402Z,101013.38
2022-10-28T08:13:47.593Z,101015.41
2022-10-28T08:16:16.861Z,101010.21
2022-10-28T08:18:46.118Z,101006.68
2022-10-28T08:21:15.538Z,101009.88
2022-10-28T08:23:47.093Z,101011.52
2022-10-28T08:26:17.035Z,101011.31
2022-10-28T08:28:45.090Z,101011.06
2022-10-28T08:31:13.892Z,101011.07
2022-10-28T08:33:47.015Z,101012.34
2022-10-28T08:36:16.898Z,101013.71
2022-10-28T08:38:46.816Z,101015.81
2022-10-28T08:41:24.178Z,101015.92
2022-10-28T08:43:58.169Z,101011.77
2022-10-28T08:47:04.398Z,101010.77
2022-10-28T08:49:39.530Z,101007.77
2022-10-28T08:52:27.763Z,101011.75
2022-10-28T08:55:04.857Z,101011.38
2022-10-28T08:57:57.805Z,101013.70
2022-10-28T09:00:29.739Z,101010.81
2022-10-28T09:03:13.623Z,101013.85
2022-10-28T09:05:48.362Z,101009.64
2022-10-28T09:08:26.361Z,101006.50
2022-10-28T09:11:13.769Z,101007.81
2022-10-28T09:14:01.890Z,101004.96
2022-10-28T09:16:48.355Z,101002.98
2022-10-28T09:19:22.576Z,101002.81
2022-10-28T09:22:04.858Z,101005.45
2022-10-28T09:24:49.657Z,101005.79
2022-10-28T09:27:52.679Z,101003.75
2022-10-28T09:30:49.735Z,101003.61
2022-10-28T09:33:55.295Z,101005.65
2022-10-28T09:36:46.507Z,101010.15
2022-10-28T09:39:23.898Z,101009.05
2022-10-28T09:41:59.750Z,101009.51
2022-10-28T09:44:43.688Z,101010.52
2022-10-28T09:47:29.314Z,101007.52
2022-10-28T09:50:01.752Z,101007.50
2022-10-28T09:53:01.257Z,101005.45
2022-10-28T09:55:29.728Z,101001.96
2022-10-28T09:57:58.013Z,100998.46
2022-10-28T10:00:26.734Z,100993.89
2022-10-28T10:03:00.172Z,100996.44
2022-10-28T10:05:31.398Z,100994.45
2022-10-28T10:08:05.141Z,100994.75
2022-10-28T10:10:45.804Z,101000.10
2022-10-28T10:13:17.878Z,100998.20
2022-10-28T10:15:51.906Z,100997.55
2022-10-28T10:18:27.340Z,100996.52
2022-10-28T10:21:00.823Z,101000.92
2022-10-28T10:23:31.048Z,100997.08
2022-10-28T10:26:09.719Z,100996.77
2022-10-28T10:28:48.051Z,100990.95
2022-10-28T10:31:24.249Z,100998.80
2022-10-28T10:33:55.809Z,100995.52
2022-10-28T10:36:28.858Z,100996.03
2022-10-28T10:38:59.559Z,100994.84
2022-10-28T10:41:44.537Z,100994.01
2022-10-28T10:44:21.749Z,100986.85
2022-10-28T10:46:53.330Z,100983.68
2022-10-28T10:49:21.509Z,100983.89
2022-10-28T10:51:57.269Z,100983.05
2022-10-28T10:54:27.594Z,100983.19
2022-10-28T10:57:26.938Z,100979.08
2022-10-28T10:59:57.213Z,100980.74
2022-10-28T11:02:32.655Z,100974.17
2022-10-28T11:05:07.946Z,100971.16
2022-10-28T11:07:40.787Z,100967.14
2022-10-28T11:10:29.519Z,100966.45
2022-10-28T11:13:04.369Z,100966.49
2022-10-28T11:15:33.367Z,100963.09
2022-10-28T11:18:04.790Z,100959.64
2022-10-28T11:20:47.334Z,100954.95
2022-10-28T11:23:35.543Z,100952.20
2022-10-28T11:26:08.863Z,100949.42
2022-10-28T11:29:01.922Z,100948.70
2022-10-28T11:31:46.315Z,100947.52
2022-10-28T11:34:26.650Z,100942.27
2022-10-28T11:37:19.799Z,100939.71
2022-10-28T11:40:13.691Z,100936.61
2022-10-28T11:43:03.659Z,100938.08
2022-10-28T11:45:44.743Z,100938.30
2022-10-28T11:48:27.445Z,100938.23
2022-10-28T11:51:18.773Z,100933.27
2022-10-28T11:54:05.590Z,100929.05
2022-10-28T11:56:39.481Z,100929.89
2022-10-28T11:59:46.676Z,100924.40
2022-10-28T12:02:33.754Z,100922.04
2022-10-28T12:05:05.884Z,100915.98
2022-10-28T12:08:04.542Z,100913.56
2022-10-28T12:10:58.516Z,100909.90
2022-10-28T12:14:06.266Z,100901.23
2022-10-28T12:16:50.397Z,100900.38
2022-10-28T12:19:28.269Z,100895.39
2022-10-28T12:22:29.118Z,100898.80
2022-10-28T12:25:02.702Z,100888.62
2022-10-28T12:27:36.529Z,100886.81
2022-10-28T12:30:21.494Z,100883.95
2022-10-28T12:33:04.309Z,100880.09
2022-10-28T12:35:37.612Z,100876.91
2022-10-28T12:38:20.287Z,100874.20
2022-10-28T12:40:57.273Z,100872.23
2022-10-28T12:43:39.705Z,100874.17
2022-10-28T12:46:18.830Z,100875.80
2022-10-28T12:48:58.865Z,100879.39
2022-10-28T12:51:41.602Z,100874.39
2022-10-28T12:54:23.195Z,100871.93
2022-10-28T12:57:02.121Z,100870.06
2022-10-28T12:59:39.092Z,100868.27
2022-10-28T13:02:17.578Z,100875.85
2022-10-28T13:04:45.890Z,100874.95
2022-10-28T13:07:23.195Z,100876.23
2022-10-28T13:10:30.769Z,100874.59
2022-10-28T13:13:20.459Z,100869.09
2022-10-28T13:16:19.866Z,100865.13
2022-10-28T13:19:16.813Z,100858.45
2022-10-28T13:22:08.025Z,100861.83
2022-10-28T13:24:51.065Z,100857.17
2022-10-28T13:27:20.435Z,100854.69
2022-10-28T13:29:55.206Z,100848.79
2022-10-28T13:32:37.513Z,100844.19
2022-10-28T13:35:28.277Z,100844.82
2022-10-28T13:37:57.871Z,100835.27
2022-10-28T13:40:32.213Z,100835.79
2022-10-28T13:43:02.017Z,100839.80
2022-10-28T13:45:52.253Z,100835.99
2022-10-28T13:48:29.604Z,100835.65
2022-10-28T13:51:10.072Z,100832.30
2022-10-28T13:53:47.965Z,100832.45
2022-10-28T13:56:25.762Z,100828.41
2022-10-28T13:58:58.244Z,100828.12
2022-10-28T14:01:37.761Z,100832.61
2022-10-28T14:04:19.895Z,100834.92
2022-10-28T14:06:48.574Z,100837.88
2022-10-28T14:09:28.005Z,100834.52
2022-10-28T14:12:18.745Z,100832.81
2022-10-28T14:15:07.159Z,100831.92
2022-10-28T14:17:45.369Z,100838.90
2022-10-28T14:20:22.559Z,100837.40
2022-10-28T14:22:54.607Z,100837.63
2022-10-28T14:25:41.850Z,100838.96
2022-10-28T14:28:32.357Z,100834.38
2022-10-28T14:31:10.366Z,100835.54
2022-10-28T14:33:42.287Z,100836.92
2022-10-28T14:36:20.119Z,100836.10
2022-10-28T14:39:03.747Z,100836.04
2022-10-28T14:42:09.515Z,100830.05
2022-10-28T14:45:05.531Z,100831.83
2022-10-28T14:48:01.752Z,100830.00
2022-10-28T14:50:51.743Z,100829.77
2022-10-28T14:53:30.469Z,100830.52
2022-10-28T14:56:06.364Z,100824.77
2022-10-28T14:58:39.283Z,100821.11
2022-10-28T15:01:16.681Z,100820.45
2022-10-28T15:03:51.212Z,100819.38
2022-10-28T15:06:39.525Z,100818.54
2022-10-28T15:09:19.210Z,100820.20
2022-10-28T15:11:56.082Z,100817.60
2022-10-28T15:14:27.947Z,100818.52
2022-10-28T15:16:56.516Z,100817.77
2022-10-28T15:19:29.423Z,100818.10
2022-10-28T15:22:20.696Z,100819.54
2022-10-28T15:24:57.058Z,100814.75
2022-10-28T15:27:28.933Z,100815.55
2022-10-28T15:29:58.682Z,100816.23
2022-10-28T15:32:26.985Z,100819.20
2022-10-28T15:34:55.543Z,100820.13
2022-10-28T15:37:30.350Z,100822.82
2022-10-28T15:40:19.935Z,100819.12
2022-10-28T15:42:59.440Z,100811.59
2022-10-28T15:45:38.318Z,100810.16
2022-10-28T15:48:20.196Z,100803.15
2022-10-28T15:51:12.175Z,100800.52
2022-10-28T15:53:45.729Z,100803.33
2022-10-28T15:56:14.717Z,100803.99
2022-10-28T15:58:49.336Z,100808.45
2022-10-28T16:01:40.990Z,100808.95
2022-10-28T16:04:19.792Z,100803.70
2022-10-28T16:06:49.905Z,100798.26
2022-10-28T16:09:35.187Z,100802.73
2022-10-28T16:12:15.317Z,100806.60
2022-10-28T16:14:54.481Z,100807.93
2022-10-28T16:17:33.697Z,100805.75
2022-10-28T16:20:17.062Z,100807.15
2022-10-28T16:22:49.178Z,100813.43
2022-10-28T16:25:20.906Z,100814.64
2022-10-28T16:27:50.600Z,100821.16
2022-10-28T16:30:20.010Z,100816.64
2022-10-28T16:32:51.460Z,100822.23
2022-10-28T16:35:24.587Z,100822.20
2022-10-28T16:37:55.541Z,100822.80
2022-10-28T16:40:50.565Z,100818.38
2022-10-28T16:43:19.844Z,100812.84
2022-10-28T16:45:49.944Z,100804.06
2022-10-28T16:48:20.028Z,100806.50
2022-10-28T16:50:51.591Z,100808.64
2022-10-28T16:53:20.372Z,100809.01
2022-10-28T16:55:49.158Z,100813.64
2022-10-28T16:58:21.887Z,100815.91
2022-10-28T17:00:53.974Z,100815.95
2022-10-28T17:03:26.437Z,100819.59
2022-10-28T17:05:59.969Z,100814.36
2022-10-28T17:08:49.392Z,100812.36
2022-10-28T17:11:19.518Z,100809.55
2022-10-28T17:13:48.991Z,100813.65
2022-10-28T17:16:17.460Z,100810.11
2022-10-28T17:18:47.682Z,100809.46
2022-10-28T17:21:16.566Z,100808.05
2022-10-28T17:23:46.389Z,100805.07
2022-10-28T17:26:15.441Z,100805.23
2022-10-28T17:28:44.696Z,100802.38
2022-10-28T17:31:19.179Z,100805.39
2022-10-28T17:33:55.966Z,100806.95
2022-10-28T17:36:26.507Z,100804.11
2022-10-28T17:38:56.768Z,100802.20
2022-10-28T17:41:29.467Z,100800.39
2022-10-28T17:44:00.696Z,100799.16
2022-10-28T17:46:30.753Z,100799.52
2022-10-28T17:49:08.640Z,100799.52
2022-10-28T17:51:39.598Z,100799.42
2022-10-28T17:54:10.015Z,100792.06
2022-10-28T17:56:40.690Z,100792.92
2022-10-28T17:59:10.979Z,100791.48
2022-10-28T18:01:41.583Z,100788.30
2022-10-28T18:04:12.671Z,100793.45
2022-10-28T18:06:41.672Z,100794.05
2022-10-28T18:09:12.995Z,100796.92
2022-10-28T18:11:43.147Z,100794.77
2022-10-28T18:14:12.629Z,100789.65
2022-10-28T18:16:42.062Z,100785.63
2022-10-28T18:19:14.212Z,100784.65
2022-10-28T18:21:45.266Z,100784.28
2022-10-28T18:24:14.050Z,100785.42
2022-10-28T18:26:43.738Z,100787.50
2022-10-28T18:29:14.287Z,100787.20
2022-10-28T18:31:44.585Z,100788.67
2022-10-28T18:34:13.140Z,100787.73
2022-10-28T18:36:42.841Z,100786.80
2022-10-28T18:39:12.809Z,100784.91
2022-10-28T18:41:43.462Z,100784.71
2022-10-28T18:44:14.698Z,100786.01
2022-10-28T18:46:48.519Z,100791.95
2022-10-28T18:49:18.069Z,100790.99
2022-10-28T18:51:46.897Z,100786.23
2022-10-28T18:54:15.786Z,100783.52
2022-10-28T18:56:47.827Z,100782.06
2022-10-28T18:59:17.761Z,100777.22
2022-10-28T19:01:47.363Z,100774.91
2022-10-28T19:04:16.511Z,100776.70
2022-10-28T19:06:47.484Z,100776.39
2022-10-28T19:09:16.646Z,100777.08
2022-10-28T19:11:45.392Z,100766.52
2022-10-28T19:14:14.084Z,100765.55
2022-10-28T19:16:43.707Z,100762.60
2022-10-28T19:19:12.366Z,100760.81
2022-10-28T19:21:40.850Z,100761.11
2022-10-28T19:24:09.193Z,100757.18
2022-10-28T19:26:39.841Z,100754.41
2022-10-28T19:29:09.057Z,100753.95
2022-10-28T19:31:40.381Z,100751.17
2022-10-28T19:34:11.051Z,100750.05
2022-10-28T19:36:39.818Z,100755.08
2022-10-28T19:39:09.163Z,100757.34
2022-10-28T19:41:39.022Z,100753.52
2022-10-28T19:44:08.717Z,100755.31
2022-10-28T19:46:38.315Z,100752.60
2022-10-28T19:49:08.601Z,100755.41
2022-10-28T19:51:40.860Z,100750.16
2022-10-28T19:54:15.372Z,100753.60
2022-10-28T19:56:45.700Z,100750.22
2022-10-28T19:59:14.695Z,100745.42
2022-10-28T20:01:44.243Z,100746.89
2022-10-28T20:04:13.176Z,100744.55
2022-10-28T20:06:41.885Z,100745.05
2022-10-28T20:09:10.953Z,100747.35
2022-10-28T20:11:40.895Z,100749.24
2022-10-28T20:14:12.163Z,100747.27
2022-10-28T20:16:44.283Z,100748.02
2022-10-28T20:19:14.265Z,100745.27
2022-10-28T20:21:45.878Z,100744.71
2022-10-28T20:24:17.878Z,100744.60
2022-10-28T20:26:47.065Z,100747.16
2022-10-28T20:29:16.034Z,100744.77
2022-10-28T20:31:45.552Z,100741.19
2022-10-28T20:34:15.141Z,100741.87
2022-10-28T20:36:46.605Z,100743.19
2022-10-28T20:39:17.408Z,100745.14
2022-10-28T20:41:47.409Z,100739.67
2022-10-28T20:44:17.029Z,100747.97
2022-10-28T20:46:48.432Z,100751.46
2022-10-28T20:49:18.004Z,100751.66
2022-10-28T20:51:46.787Z,100751.88
2022-10-28T20:54:16.336Z,100759.05
2022-10-28T20:56:45.605Z,100760.19
2022-10-28T20:59:15.003Z,100761.16
2022-10-28T21:01:43.882Z,100758.05
2022-10-28T21:04:12.847Z,100759.08
2022-10-28T21:06:42.036Z,100760.73
2022-10-28T21:09:12.029Z,100760.45
2022-10-28T21:11:41.087Z,100754.88
2022-10-28T21:14:09.958Z,100759.04
2022-10-28T21:16:38.851Z,100757.59
2022-10-28T21:19:07.947Z,100762.45
2022-10-28T21:21:36.938Z,100753.90
2022-10-28T21:24:06.575Z,100751.42
2022-10-28T21:26:35.129Z,100747.69
2022-10-28T21:29:03.327Z,100751.13
2022-10-28T21:31:31.487Z,100747.84
2022-10-28T21:34:01.826Z,100746.59
2022-10-28T21:36:32.637Z,100740.38
2022-10-28T21:39:01.019Z,100742.65
2022-10-28T21:41:29.610Z,100739.48
2022-10-28T21:43:58.397Z,100733.54
2022-10-28T21:46:28.313Z,100730.25
2022-10-28T21:48:57.011Z,100727.95
2022-10-28T21:51:25.585Z,100728.19
2022-10-28T21:53:53.716Z,100722.68
2022-10-28T21:56:21.812Z,100717.44
2022-10-28T21:58:51.429Z,100722.31
2022-10-28T22:01:23.362Z,100723.56
2022-10-28T22:03:55.389Z,100719.90
2022-10-28T22:06:27.180Z,100718.52
2022-10-28T22:08:56.218Z,100717.17
2022-10-28T22:11:24.898Z,100717.00
2022-10-28T22:13:58.763Z,100715.38
2022-10-28T22:16:29.416Z,100723.98
2022-10-28T22:18:59.770Z,100728.04
2022-10-28T22:21:32.049Z,100723.61
2022-10-28T22:24:01.232Z,100719.17
2022-10-28T22:26:30.709Z,100714.58
2022-10-28T22:29:00.426Z,100718.08
2022-10-28T22:31:31.621Z,100718.39
2022-10-28T22:34:00.593Z,100720.05
2022-10-28T22:36:30.606Z,100722.36
2022-10-28T22:38:59.595Z,100721.97
2022-10-28T22:41:30.712Z,100721.05
2022-10-28T22:44:01.910Z,100721.44
2022-10-28T22:46:34.615Z,100722.12
2022-10-28T22:49:04.522Z,100716.54
2022-10-28T22:51:33.655Z,100713.94
2022-10-28T22:54:02.148Z,100714.95
2022-10-28T22:56:30.640Z,100709.48
2022-10-28T22:59:01.306Z,100708.48
2022-10-28T23:01:33.869Z,100709.09
2022-10-28T23:04:02.243Z,100710.92
2022-10-28T23:06:30.526Z,100713.13
2022-10-28T23:08:58.865Z,100713.84
2022-10-28T23:11:27.487Z,100714.04
2022-10-28T23:13:56.241Z,100716.61
2022-10-28T23:16:24.729Z,100716.00
2022-10-28T23:18:53.614Z,100712.05
2022-10-28T23:21:24.449Z,100709.97
2022-10-28T23:23:54.741Z,100709.76
2022-10-28T23:26:23.770Z,100712.84
2022-10-28T23:28:57.992Z,100711.31
2022-10-28T23:31:27.085Z,100716.64
2022-10-28T23:33:55.875Z,100718.54
2022-10-28T23:36:24.151Z,100716.31
2022-10-28T23:38:52.740Z,100716.08
2022-10-28T23:41:21.245Z,100714.80
2022-10-28T23:43:49.711Z,100717.27
2022-10-28T23:46:18.483Z,100724.88
2022-10-28T23:48:46.561Z,100725.85
2022-10-28T23:51:14.795Z,100722.00
2022-10-28T23:53:42.878Z,100722.19
2022-10-28T23:56:10.884Z,100723.78
2022-10-28T23:58:38.942Z,100725.28
